^^
Datos históricos de la estación: Murcia-Puente Tocinos
Diario Informe para Mayo 28, 2019 Unidades:  Métrico    Inglés   Ambas
Diario Semanal Mensual Anual Configurable
  Máximo: Mínimo: Media:
Temperatura: 25.9 °C 18.4 °C 21.5 °C
Punto de rocio: 17.6 °C 13.7 °C 16.1 °C
Humedad: 92% 49% 73%
Velocidad viento: 23.7km/h 0.0km/h 10.9km/h
Racha viento: 38.9km/h - -
Viento- - East
Presión: 1015.4 hPa 1009.3 hPa -
Precipitación: 0.0 mm    
Historical Graphs
 
 
Tabla de datos para Mayo 28, 2019
Hora Temperatura Punto de rocio Presión Viento Velocidad viento Racha viento Humedad Intensidad lluvia(por hora) Nubes
00:04 19.8 °C 16.6 °C 1009.5 hPa NNE 10.0 km/h 20.4 km/h 82% 0.0 mm CLR
00:09 19.7 °C 16.6 °C 1009.5 hPa NNE 12.2 km/h 18.5 km/h 82% 0.0 mm CLR
00:14 19.6 °C 16.6 °C 1009.5 hPa NE 12.2 km/h 22.2 km/h 83% 0.0 mm CLR
00:19 19.6 °C 16.6 °C 1009.3 hPa NNE 14.0 km/h 18.5 km/h 83% 0.0 mm CLR
00:24 19.5 °C 16.7 °C 1009.3 hPa NNE 14.0 km/h 16.7 km/h 84% 0.0 mm CLR
00:29 19.4 °C 16.6 °C 1009.3 hPa NNE 12.2 km/h 16.7 km/h 84% 0.0 mm CLR
00:34 19.4 °C 16.8 °C 1009.5 hPa NE 12.2 km/h 14.8 km/h 85% 0.0 mm CLR
00:39 19.4 °C 16.8 °C 1009.5 hPa NNW 11.9 km/h 16.7 km/h 85% 0.0 mm CLR
00:44 19.3 °C 16.7 °C 1009.5 hPa NE 11.9 km/h 16.7 km/h 85% 0.0 mm CLR
00:49 19.3 °C 16.9 °C 1009.5 hPa ENE 11.1 km/h 20.4 km/h 86% 0.0 mm CLR
00:54 19.3 °C 16.9 °C 1009.5 hPa NE 11.1 km/h 18.5 km/h 86% 0.0 mm CLR
00:59 19.2 °C 16.8 °C 1009.5 hPa NE 12.2 km/h 14.8 km/h 86% 0.0 mm CLR
01:04 19.2 °C 16.8 °C 1009.6 hPa NE 12.2 km/h 14.8 km/h 86% 0.0 mm CLR
01:09 19.2 °C 16.8 °C 1009.6 hPa NE 11.1 km/h 16.7 km/h 86% 0.0 mm CLR
01:14 19.2 °C 17.0 °C 1009.6 hPa NE 11.1 km/h 11.1 km/h 87% 0.0 mm CLR
01:19 19.1 °C 16.9 °C 1009.5 hPa NE 8.7 km/h 13.0 km/h 87% 0.0 mm CLR
01:24 19.1 °C 16.9 °C 1009.5 hPa NE 8.7 km/h 14.8 km/h 87% 0.0 mm CLR
01:29 19.0 °C 16.8 °C 1009.5 hPa NE 8.7 km/h 16.1 km/h 87% 0.0 mm CLR
01:34 18.9 °C 16.7 °C 1009.6 hPa NNE 8.7 km/h 20.4 km/h 87% 0.0 mm CLR
01:39 18.9 °C 16.9 °C 1009.6 hPa NE 11.1 km/h 16.7 km/h 88% 0.0 mm CLR
01:44 18.9 °C 16.9 °C 1009.6 hPa ENE 11.1 km/h 16.7 km/h 88% 0.0 mm CLR
01:49 18.8 °C 16.6 °C 1009.6 hPa NE 11.1 km/h 18.5 km/h 87% 0.0 mm CLR
01:54 18.7 °C 16.3 °C 1009.6 hPa East 11.1 km/h 16.7 km/h 86% 0.0 mm CLR
01:59 18.7 °C 15.8 °C 1009.6 hPa ENE 11.1 km/h 16.7 km/h 83% 0.0 mm CLR
02:04 18.8 °C 15.4 °C 1009.5 hPa ENE 11.1 km/h 9.5 km/h 81% 0.0 mm CLR
02:09 18.9 °C 15.6 °C 1009.5 hPa North 7.6 km/h 8.4 km/h 81% 0.0 mm CLR
02:14 18.9 °C 15.8 °C 1009.5 hPa NE 7.6 km/h 7.4 km/h 82% 0.0 mm CLR
02:19 18.8 °C 15.8 °C 1009.6 hPa NNE 5.8 km/h 13.0 km/h 83% 0.0 mm CLR
02:24 18.8 °C 16.2 °C 1009.6 hPa ENE 5.8 km/h 11.1 km/h 85% 0.0 mm CLR
02:29 18.8 °C 16.6 °C 1009.6 hPa NE 8.7 km/h 17.2 km/h 87% 0.0 mm CLR
02:34 18.7 °C 16.7 °C 1009.5 hPa North 8.7 km/h 14.8 km/h 88% 0.0 mm CLR
02:39 18.6 °C 16.8 °C 1009.5 hPa NE 11.1 km/h 18.5 km/h 89% 0.0 mm CLR
02:44 18.6 °C 16.8 °C 1009.5 hPa ENE 11.1 km/h 16.7 km/h 89% 0.0 mm CLR
02:49 18.5 °C 16.7 °C 1009.4 hPa NNE 11.1 km/h 14.8 km/h 89% 0.0 mm CLR
02:54 18.4 °C 16.6 °C 1009.4 hPa North 11.1 km/h 10.3 km/h 89% 0.0 mm CLR
02:59 18.4 °C 16.7 °C 1009.4 hPa NE 8.4 km/h 13.7 km/h 90% 0.0 mm CLR
03:04 18.4 °C 16.7 °C 1009.5 hPa NNE 8.4 km/h 8.4 km/h 90% 0.0 mm CLR
03:09 18.4 °C 16.7 °C 1009.5 hPa NE 8.4 km/h 11.1 km/h 90% 0.0 mm CLR
03:14 18.4 °C 16.9 °C 1009.5 hPa NNE 8.4 km/h 7.4 km/h 91% 0.0 mm CLR
03:19 18.4 °C 16.9 °C 1009.8 hPa NE 5.8 km/h 9.3 km/h 91% 0.0 mm CLR
03:24 18.4 °C 16.9 °C 1009.8 hPa NNE 5.8 km/h 7.4 km/h 91% 0.0 mm CLR
03:29 18.4 °C 16.9 °C 1009.8 hPa NE 6.4 km/h 9.3 km/h 91% 0.0 mm CLR
03:34 18.5 °C 17.2 °C 1009.9 hPa NE 6.4 km/h 9.3 km/h 92% 0.0 mm CLR
03:39 18.6 °C 17.3 °C 1009.9 hPa ENE 5.8 km/h 7.4 km/h 92% 0.0 mm CLR
03:44 18.6 °C 17.3 °C 1009.9 hPa ENE 5.8 km/h 10.0 km/h 92% 0.0 mm CLR
03:49 18.6 °C 17.3 °C 1009.8 hPa NE 6.4 km/h 10.0 km/h 92% 0.0 mm CLR
03:54 18.6 °C 17.3 °C 1009.8 hPa NE 6.4 km/h 9.3 km/h 92% 0.0 mm CLR
03:59 18.6 °C 17.3 °C 1009.8 hPa North 6.4 km/h 9.3 km/h 92% 0.0 mm CLR
04:04 18.6 °C 17.3 °C 1009.9 hPa NNE 6.4 km/h 9.3 km/h 92% 0.0 mm CLR
04:09 18.6 °C 17.3 °C 1009.9 hPa NE 5.8 km/h 7.4 km/h 92% 0.0 mm CLR
04:14 18.7 °C 17.4 °C 1009.9 hPa North 5.8 km/h 11.1 km/h 92% 0.0 mm CLR
04:19 18.7 °C 17.4 °C 1010.0 hPa NNE 6.9 km/h 7.6 km/h 92% 0.0 mm CLR
04:24 18.7 °C 17.4 °C 1010.0 hPa NNE 6.9 km/h 11.1 km/h 92% 0.0 mm CLR
04:29 18.7 °C 17.4 °C 1010.0 hPa NNE 6.4 km/h 7.4 km/h 92% 0.0 mm CLR
04:34 18.7 °C 17.4 °C 1009.8 hPa NNE 6.4 km/h 9.3 km/h 92% 0.0 mm CLR
04:39 18.7 °C 17.4 °C 1009.8 hPa NE 5.0 km/h 7.4 km/h 92% 0.0 mm CLR
04:44 18.7 °C 17.4 °C 1009.8 hPa NE 5.0 km/h 9.3 km/h 92% 0.0 mm CLR
04:49 18.7 °C 17.4 °C 1009.9 hPa NNE 6.4 km/h 7.4 km/h 92% 0.0 mm CLR
04:54 18.7 °C 17.4 °C 1009.9 hPa NE 6.4 km/h 7.4 km/h 92% 0.0 mm CLR
04:59 18.7 °C 17.4 °C 1009.9 hPa NNE 4.7 km/h 7.4 km/h 92% 0.0 mm CLR
05:04 18.7 °C 17.4 °C 1010.0 hPa North 4.7 km/h 9.3 km/h 92% 0.0 mm CLR
05:09 18.7 °C 17.4 °C 1010.0 hPa NNE 4.7 km/h 7.4 km/h 92% 0.0 mm CLR
05:14 18.7 °C 17.4 °C 1010.0 hPa NE 4.7 km/h 9.3 km/h 92% 0.0 mm CLR
05:19 18.7 °C 17.4 °C 1010.0 hPa NE 4.7 km/h 8.4 km/h 92% 0.0 mm CLR
05:24 18.7 °C 17.4 °C 1010.0 hPa NE 4.7 km/h 7.4 km/h 92% 0.0 mm CLR
05:29 18.8 °C 17.5 °C 1010.0 hPa NE 4.7 km/h 3.7 km/h 92% 0.0 mm CLR
05:34 18.8 °C 17.5 °C 1010.0 hPa NE 4.7 km/h 5.6 km/h 92% 0.0 mm CLR
05:39 18.8 °C 17.5 °C 1010.0 hPa ENE 3.2 km/h 5.6 km/h 92% 0.0 mm CLR
05:44 18.8 °C 17.5 °C 1010.0 hPa ENE 3.2 km/h 3.7 km/h 92% 0.0 mm CLR
05:49 18.8 °C 17.5 °C 1010.2 hPa Calm   2.9 km/h 92% 0.0 mm CLR
05:54 18.8 °C 17.5 °C 1010.2 hPa Calm   5.8 km/h 92% 0.0 mm CLR
05:59 18.9 °C 17.6 °C 1010.2 hPa WNW 2.9 km/h 5.6 km/h 92% 0.0 mm CLR
06:04 18.8 °C 17.3 °C 1010.2 hPa NNW 2.9 km/h 7.4 km/h 91% 0.0 mm CLR
06:09 18.8 °C 17.3 °C 1010.2 hPa NNW 4.7 km/h 5.6 km/h 91% 0.0 mm CLR
06:14 18.8 °C 17.1 °C 1010.2 hPa NW 4.7 km/h 6.4 km/h 90% 0.0 mm CLR
06:19 18.8 °C 17.1 °C 1010.4 hPa NW 3.2 km/h 5.8 km/h 90% 0.0 mm CLR
06:24 18.8 °C 16.9 °C 1010.4 hPa NW 3.2 km/h 9.3 km/h 89% 0.0 mm CLR
06:29 18.8 °C 16.9 °C 1010.4 hPa NW 4.7 km/h 5.0 km/h 89% 0.0 mm CLR
06:34 18.8 °C 16.9 °C 1010.4 hPa NW 4.7 km/h 3.7 km/h 89% 0.0 mm CLR
06:39 18.8 °C 16.9 °C 1010.4 hPa NW 3.2 km/h 3.7 km/h 89% 0.0 mm CLR
06:44 18.9 °C 17.1 °C 1010.4 hPa NW 3.2 km/h   89% 0.0 mm CLR
06:49 18.9 °C 17.1 °C 1010.4 hPa NW 2.3 km/h 3.9 km/h 89% 0.0 mm CLR
06:54 18.9 °C 16.9 °C 1010.4 hPa NW 2.3 km/h 5.0 km/h 88% 0.0 mm CLR
06:59 18.9 °C 16.9 °C 1010.4 hPa NW 3.2 km/h 3.7 km/h 88% 0.0 mm CLR
07:04 19.0 °C 17.2 °C 1010.5 hPa ESE 3.2 km/h 4.7 km/h 89% 0.0 mm CLR
07:09 19.1 °C 17.1 °C 1010.5 hPa ESE 3.2 km/h 3.7 km/h 88% 0.0 mm CLR
07:14 19.1 °C 17.1 °C 1010.5 hPa SE 3.2 km/h 3.7 km/h 88% 0.0 mm CLR
07:19 19.1 °C 17.1 °C 1010.7 hPa SE 2.3 km/h 2.3 km/h 88% 0.0 mm CLR
07:24 19.1 °C 17.1 °C 1010.7 hPa SE 2.3 km/h 4.7 km/h 88% 0.0 mm CLR
07:29 19.1 °C 16.9 °C 1010.7 hPa West 2.3 km/h 7.4 km/h 87% 0.0 mm CLR
07:34 19.0 °C 16.8 °C 1010.8 hPa WNW 2.3 km/h 4.7 km/h 87% 0.0 mm CLR
07:39 19.0 °C 16.8 °C 1010.8 hPa WNW 3.2 km/h 3.9 km/h 87% 0.0 mm CLR
07:44 19.0 °C 16.8 °C 1010.8 hPa WNW 3.2 km/h 5.8 km/h 87% 0.0 mm CLR
07:49 19.0 °C 16.8 °C 1010.9 hPa WNW 2.9 km/h 6.4 km/h 87% 0.0 mm CLR
07:54 19.0 °C 16.8 °C 1010.9 hPa NW 2.9 km/h 5.6 km/h 87% 0.0 mm CLR
07:59 19.0 °C 16.8 °C 1010.9 hPa NW 3.2 km/h 7.4 km/h 87% 0.0 mm CLR
08:04 19.1 °C 16.9 °C 1011.1 hPa West 3.2 km/h 7.4 km/h 87% 0.0 mm CLR
08:09 19.2 °C 16.8 °C 1011.1 hPa West 3.9 km/h 5.6 km/h 86% 0.0 mm CLR
08:14 19.2 °C 16.8 °C 1011.1 hPa West 3.9 km/h 5.6 km/h 86% 0.0 mm CLR
08:19 19.3 °C 16.9 °C 1011.2 hPa WNW 3.2 km/h 7.4 km/h 86% 0.0 mm CLR
08:24 19.4 °C 17.0 °C 1011.2 hPa NW 3.2 km/h 7.4 km/h 86% 0.0 mm CLR
08:29 19.7 °C 17.1 °C 1011.2 hPa ENE 3.2 km/h 5.6 km/h 85% 0.0 mm CLR
08:34 19.9 °C 17.1 °C 1011.4 hPa NE 3.2 km/h 5.6 km/h 84% 0.0 mm CLR
08:39 20.2 °C 17.2 °C 1011.4 hPa NE 3.2 km/h 3.7 km/h 83% 0.0 mm CLR
08:44 20.4 °C 17.2 °C 1011.4 hPa NNE 3.2 km/h 6.9 km/h 82% 0.0 mm CLR
08:49 20.6 °C 17.2 °C 1011.4 hPa NNW 2.9 km/h 7.6 km/h 81% 0.0 mm CLR
08:54 20.6 °C 17.0 °C 1011.4 hPa North 2.9 km/h 6.4 km/h 80% 0.0 mm CLR
08:59 20.7 °C 17.1 °C 1011.4 hPa NNE 3.9 km/h 5.6 km/h 80% 0.0 mm CLR
09:04 20.9 °C 17.1 °C 1011.5 hPa NE 3.9 km/h 8.7 km/h 79% 0.0 mm CLR
09:09 20.9 °C 16.9 °C 1011.5 hPa ENE 4.7 km/h 9.3 km/h 78% 0.0 mm CLR
09:14 20.9 °C 16.9 °C 1011.5 hPa NE 4.7 km/h 9.3 km/h 78% 0.0 mm CLR
09:19 21.0 °C 16.8 °C 1011.5 hPa East 5.0 km/h 7.4 km/h 77% 0.0 mm CLR
09:24 21.1 °C 16.9 °C 1011.5 hPa SSE 5.0 km/h 5.6 km/h 77% 0.0 mm CLR
09:29 21.2 °C 17.0 °C 1011.5 hPa NNW 3.2 km/h 7.4 km/h 77% 0.0 mm CLR
09:34 21.3 °C 16.9 °C 1011.3 hPa NNW 3.2 km/h 9.3 km/h 76% 0.0 mm CLR
09:39 21.4 °C 17.0 °C 1011.3 hPa NNW 4.7 km/h 7.4 km/h 76% 0.0 mm CLR
09:44 21.5 °C 16.9 °C 1011.3 hPa NNW 4.7 km/h 9.3 km/h 75% 0.0 mm CLR
09:49 21.4 °C 16.8 °C 1011.6 hPa NE 5.0 km/h 9.3 km/h 75% 0.0 mm CLR
09:54 21.6 °C 16.8 °C 1011.6 hPa NNE 5.0 km/h 8.7 km/h 74% 0.0 mm CLR
09:59 21.8 °C 16.9 °C 1011.6 hPa NW 5.0 km/h 7.4 km/h 74% 0.0 mm CLR
10:04 22.1 °C 16.8 °C 1011.6 hPa NE 5.0 km/h 13.0 km/h 72% 0.0 mm CLR
10:09 22.1 °C 16.8 °C 1011.6 hPa NE 5.8 km/h 3.7 km/h 72% 0.0 mm CLR
10:14 22.2 °C 16.4 °C 1011.6 hPa NE 5.8 km/h 13.0 km/h 70% 0.0 mm CLR
10:19 22.4 °C 16.7 °C 1011.6 hPa NE 4.7 km/h 9.3 km/h 70% 0.0 mm CLR
10:24 22.6 °C 16.2 °C 1011.6 hPa ENE 4.7 km/h 11.1 km/h 67% 0.0 mm CLR
10:29 22.8 °C 16.3 °C 1011.6 hPa NE 5.8 km/h 2.9 km/h 67% 0.0 mm CLR
10:34 23.0 °C 15.8 °C 1011.5 hPa NE 5.8 km/h 9.3 km/h 64% 0.0 mm CLR
10:39 23.1 °C 15.7 °C 1011.5 hPa NE 5.0 km/h 13.7 km/h 63% 0.0 mm CLR
10:44 22.9 °C 15.5 °C 1011.5 hPa ENE 5.0 km/h 14.8 km/h 63% 0.0 mm CLR
10:49 23.0 °C 15.6 °C 1011.4 hPa ENE 6.9 km/h 6.4 km/h 63% 0.0 mm CLR
10:54 23.1 °C 15.2 °C 1011.4 hPa NNE 6.9 km/h 14.8 km/h 61% 0.0 mm CLR
10:59 23.1 °C 15.2 °C 1011.4 hPa East 8.4 km/h 13.0 km/h 61% 0.0 mm CLR
11:04 23.1 °C 15.4 °C 1011.4 hPa NNE 8.4 km/h 11.1 km/h 62% 0.0 mm CLR
11:09 23.2 °C 15.3 °C 1011.4 hPa NNE 8.7 km/h 14.8 km/h 61% 0.0 mm CLR
11:14 23.2 °C 15.0 °C 1011.4 hPa NE 8.7 km/h 16.7 km/h 60% 0.0 mm CLR
11:19 23.2 °C 14.7 °C 1011.5 hPa NNE 10.3 km/h 20.4 km/h 59% 0.0 mm CLR
11:24 23.2 °C 14.7 °C 1011.5 hPa NNE 10.3 km/h 13.7 km/h 59% 0.0 mm CLR
11:29 23.5 °C 14.8 °C 1011.5 hPa North 11.1 km/h 16.7 km/h 58% 0.0 mm CLR
11:34 23.6 °C 14.8 °C 1011.5 hPa NE 11.1 km/h 13.0 km/h 58% 0.0 mm CLR
11:39 23.8 °C 14.8 °C 1011.5 hPa NE 8.7 km/h 12.2 km/h 57% 0.0 mm CLR
11:44 24.1 °C 15.1 °C 1011.5 hPa NE 8.7 km/h 21.7 km/h 57% 0.0 mm CLR
11:49 24.2 °C 14.9 °C 1011.5 hPa East 9.5 km/h 11.1 km/h 56% 0.0 mm CLR
11:54 24.3 °C 14.1 °C 1011.5 hPa ENE 9.5 km/h 12.2 km/h 53% 0.0 mm CLR
11:59 24.4 °C 14.5 °C 1011.5 hPa East 9.5 km/h 16.7 km/h 54% 0.0 mm CLR
12:04 24.5 °C 14.3 °C 1011.6 hPa NE 9.5 km/h 16.7 km/h 53% 0.0 mm CLR
12:09 24.6 °C 14.4 °C 1011.6 hPa East 10.3 km/h 11.9 km/h 53% 0.0 mm CLR
12:14 24.6 °C 14.1 °C 1011.6 hPa NNE 10.3 km/h 22.2 km/h 52% 0.0 mm CLR
12:19 24.4 °C 13.9 °C 1011.5 hPa East 11.9 km/h 14.8 km/h 52% 0.0 mm CLR
12:24 24.7 °C 13.9 °C 1011.5 hPa ENE 11.9 km/h 24.1 km/h 51% 0.0 mm CLR
12:29 24.8 °C 14.3 °C 1011.5 hPa North 10.0 km/h 14.8 km/h 52% 0.0 mm CLR
12:34 24.8 °C 13.7 °C 1011.5 hPa NE 10.0 km/h 18.5 km/h 50% 0.0 mm CLR
12:39 24.9 °C 14.1 °C 1011.5 hPa NE 11.1 km/h 17.2 km/h 51% 0.0 mm CLR
12:44 25.2 °C 13.7 °C 1011.5 hPa East 11.1 km/h 13.0 km/h 49% 0.0 mm CLR
12:49 25.2 °C 13.7 °C 1011.4 hPa NE 10.0 km/h 14.8 km/h 49% 0.0 mm CLR
12:54 25.1 °C 13.9 °C 1011.4 hPa East 10.0 km/h 18.0 km/h 50% 0.0 mm CLR
12:59 25.1 °C 13.9 °C 1011.4 hPa ENE 12.2 km/h 14.8 km/h 50% 0.0 mm CLR
13:04 25.3 °C 14.1 °C 1011.3 hPa ENE 12.2 km/h 13.7 km/h 50% 0.0 mm CLR
13:09 25.4 °C 14.2 °C 1011.3 hPa NNE 9.5 km/h 13.0 km/h 50% 0.0 mm CLR
13:14 25.4 °C 14.5 °C 1011.3 hPa ENE 9.5 km/h 18.5 km/h 51% 0.0 mm CLR
13:19 25.5 °C 14.6 °C 1011.2 hPa NE 10.3 km/h 16.7 km/h 51% 0.0 mm CLR
13:24 25.4 °C 14.5 °C 1011.2 hPa NNE 10.3 km/h 14.8 km/h 51% 0.0 mm CLR
13:29 25.3 °C 14.7 °C 1011.2 hPa NE 11.1 km/h 22.5 km/h 52% 0.0 mm CLR
13:34 25.1 °C 14.8 °C 1011.2 hPa NE 11.1 km/h 22.2 km/h 53% 0.0 mm CLR
13:39 25.1 °C 14.8 °C 1011.2 hPa NNE 16.1 km/h 22.2 km/h 53% 0.0 mm CLR
13:44 25.2 °C 15.2 °C 1011.2 hPa NNE 16.1 km/h 20.4 km/h 54% 0.0 mm CLR
13:49 25.2 °C 15.2 °C 1011.2 hPa ENE 13.0 km/h 29.6 km/h 54% 0.0 mm CLR
13:54 25.2 °C 15.2 °C 1011.2 hPa ENE 13.0 km/h 22.0 km/h 54% 0.0 mm CLR
13:59 25.1 °C 14.8 °C 1011.2 hPa NE 13.7 km/h 22.2 km/h 53% 0.0 mm CLR
14:04 25.2 °C 15.2 °C 1011.1 hPa NE 13.7 km/h 19.8 km/h 54% 0.0 mm CLR
14:09 25.5 °C 15.2 °C 1011.1 hPa NE 11.9 km/h 18.5 km/h 53% 0.0 mm CLR
14:14 25.4 °C 15.1 °C 1011.1 hPa ENE 11.9 km/h 22.2 km/h 53% 0.0 mm CLR
14:19 25.3 °C 15.1 °C 1011.0 hPa NE 14.0 km/h 29.6 km/h 53% 0.0 mm CLR
14:24 25.1 °C 15.7 °C 1011.0 hPa ENE 14.0 km/h 29.6 km/h 56% 0.0 mm CLR
14:29 25.5 °C 15.5 °C 1011.0 hPa NE 17.2 km/h 16.1 km/h 54% 0.0 mm CLR
14:34 25.7 °C 15.4 °C 1011.0 hPa NNE 17.2 km/h 25.9 km/h 53% 0.0 mm CLR
14:39 25.4 °C 15.1 °C 1011.0 hPa NE 14.0 km/h 23.3 km/h 53% 0.0 mm CLR
14:44 25.4 °C 14.8 °C 1011.0 hPa ENE 14.0 km/h 20.4 km/h 52% 0.0 mm CLR
14:49 25.5 °C 14.6 °C 1010.9 hPa NE 14.0 km/h 24.1 km/h 51% 0.0 mm CLR
14:54 25.5 °C 14.6 °C 1010.9 hPa NE 14.0 km/h 20.4 km/h 51% 0.0 mm CLR
14:59 25.4 °C 14.5 °C 1010.9 hPa NE 16.4 km/h 24.1 km/h 51% 0.0 mm CLR
15:04 25.6 °C 14.7 °C 1010.8 hPa NE 16.4 km/h 20.4 km/h 51% 0.0 mm CLR
15:09 25.8 °C 14.6 °C 1010.8 hPa NE 14.0 km/h 22.2 km/h 50% 0.0 mm CLR
15:14 25.9 °C 14.4 °C 1010.8 hPa NNE 14.0 km/h 22.2 km/h 49% 0.0 mm CLR
15:19 25.6 °C 14.4 °C 1010.9 hPa NE 15.6 km/h 22.2 km/h 50% 0.0 mm CLR
15:24 25.4 °C 14.5 °C 1010.9 hPa NE 15.6 km/h 22.2 km/h 51% 0.0 mm CLR
15:29 25.5 °C 14.6 °C 1010.9 hPa NE 15.6 km/h 29.6 km/h 51% 0.0 mm CLR
15:34 25.5 °C 14.6 °C 1010.9 hPa North 15.6 km/h 29.6 km/h 51% 0.0 mm CLR
15:39 25.5 °C 14.6 °C 1010.9 hPa NE 19.0 km/h 24.1 km/h 51% 0.0 mm CLR
15:44 25.4 °C 15.1 °C 1010.9 hPa NE 19.0 km/h 22.2 km/h 53% 0.0 mm CLR
15:49 25.3 °C 15.1 °C 1010.8 hPa NE 16.4 km/h 25.9 km/h 53% 0.0 mm CLR
15:54 25.5 °C 15.2 °C 1010.8 hPa NE 16.4 km/h 27.8 km/h 53% 0.0 mm CLR
15:59 25.7 °C 15.4 °C 1010.8 hPa NE 14.8 km/h 27.8 km/h 53% 0.0 mm CLR
16:04 25.5 °C 15.2 °C 1010.6 hPa NE 14.8 km/h 29.6 km/h 53% 0.0 mm CLR
16:09 25.3 °C 15.3 °C 1010.6 hPa ENE 20.1 km/h 30.9 km/h 54% 0.0 mm CLR
16:14 25.5 °C 15.5 °C 1010.6 hPa ENE 20.1 km/h 31.5 km/h 54% 0.0 mm CLR
16:19 25.3 °C 15.6 °C 1010.6 hPa ENE 19.0 km/h 31.5 km/h 55% 0.0 mm CLR
16:24 25.1 °C 15.4 °C 1010.6 hPa NNE 19.0 km/h 38.9 km/h 55% 0.0 mm CLR
16:29 25.1 °C 15.7 °C 1010.6 hPa NE 20.9 km/h 33.3 km/h 56% 0.0 mm CLR
16:34 25.2 °C 15.8 °C 1010.6 hPa North 20.9 km/h 25.9 km/h 56% 0.0 mm CLR
16:39 25.0 °C 15.6 °C 1010.6 hPa East 20.9 km/h 35.2 km/h 56% 0.0 mm CLR
16:44 24.8 °C 15.7 °C 1010.6 hPa NNE 20.9 km/h 30.9 km/h 57% 0.0 mm CLR
16:49 24.4 °C 15.6 °C 1010.6 hPa NNE 23.7 km/h 35.2 km/h 58% 0.0 mm CLR
16:54 24.6 °C 15.8 °C 1010.6 hPa NE 23.7 km/h 29.6 km/h 58% 0.0 mm CLR
16:59 24.7 °C 15.9 °C 1010.6 hPa NE 21.7 km/h 25.9 km/h 58% 0.0 mm CLR
17:04 24.7 °C 15.9 °C 1010.7 hPa NE 21.7 km/h 31.5 km/h 58% 0.0 mm CLR
17:09 24.4 °C 15.9 °C 1010.7 hPa NNE 20.9 km/h 25.9 km/h 59% 0.0 mm CLR
17:14 24.2 °C 15.7 °C 1010.7 hPa ENE 20.9 km/h 33.3 km/h 59% 0.0 mm CLR
17:19 24.2 °C 15.9 °C 1010.6 hPa ENE 20.9 km/h 29.6 km/h 60% 0.0 mm CLR
17:24 24.1 °C 15.8 °C 1010.6 hPa ENE 20.9 km/h 38.9 km/h 60% 0.0 mm CLR
17:29 24.2 °C 15.9 °C 1010.6 hPa ENE 20.9 km/h 29.6 km/h 60% 0.0 mm CLR
17:34 24.2 °C 15.9 °C 1010.7 hPa NNE 20.9 km/h 27.8 km/h 60% 0.0 mm CLR
17:39 24.1 °C 15.8 °C 1010.7 hPa East 18.3 km/h 27.8 km/h 60% 0.0 mm CLR
17:44 24.1 °C 15.8 °C 1010.7 hPa NE 18.3 km/h 33.3 km/h 60% 0.0 mm CLR
17:49 24.2 °C 15.9 °C 1010.7 hPa ENE 18.3 km/h 25.9 km/h 60% 0.0 mm CLR
17:54 24.0 °C 15.5 °C 1010.7 hPa NNE 18.3 km/h 25.9 km/h 59% 0.0 mm CLR
17:59 23.7 °C 15.5 °C 1010.7 hPa NE 19.8 km/h 32.8 km/h 60% 0.0 mm CLR
18:04 23.8 °C 15.8 °C 1010.6 hPa ENE 19.8 km/h 20.1 km/h 61% 0.0 mm CLR
18:09 23.8 °C 15.8 °C 1010.6 hPa ENE 20.9 km/h 27.8 km/h 61% 0.0 mm CLR
18:14 23.9 °C 15.9 °C 1010.6 hPa NE 20.9 km/h 27.8 km/h 61% 0.0 mm CLR
18:19 23.8 °C 15.8 °C 1010.7 hPa NE 17.2 km/h 29.6 km/h 61% 0.0 mm CLR
18:24 23.8 °C 15.8 °C 1010.7 hPa NNE 17.2 km/h 20.1 km/h 61% 0.0 mm CLR
18:29 23.9 °C 15.9 °C 1010.7 hPa NE 16.4 km/h 29.6 km/h 61% 0.0 mm CLR
18:34 23.8 °C 15.8 °C 1010.8 hPa NE 16.4 km/h 25.9 km/h 61% 0.0 mm CLR
18:39 23.6 °C 15.9 °C 1010.8 hPa NE 18.3 km/h 24.1 km/h 62% 0.0 mm CLR
18:44 23.4 °C 15.9 °C 1010.8 hPa ENE 18.3 km/h 27.8 km/h 63% 0.0 mm CLR
18:49 23.4 °C 15.9 °C 1010.8 hPa ENE 19.0 km/h 27.8 km/h 63% 0.0 mm CLR
18:54 23.2 °C 16.0 °C 1010.8 hPa NNE 19.0 km/h 27.8 km/h 64% 0.0 mm CLR
18:59 23.2 °C 15.8 °C 1010.8 hPa ENE 20.1 km/h 28.2 km/h 63% 0.0 mm CLR
19:04 22.9 °C 15.7 °C 1010.9 hPa ENE 20.1 km/h 25.9 km/h 64% 0.0 mm CLR
19:09 22.9 °C 15.9 °C 1010.9 hPa NE 21.7 km/h 22.2 km/h 65% 0.0 mm CLR
19:14 23.1 °C 15.9 °C 1010.9 hPa ENE 21.7 km/h 24.5 km/h 64% 0.0 mm CLR
19:19 23.1 °C 15.9 °C 1011.0 hPa NNE 15.6 km/h 25.9 km/h 64% 0.0 mm CLR
19:24 22.9 °C 15.7 °C 1011.0 hPa NE 15.6 km/h 27.8 km/h 64% 0.0 mm CLR
19:29 22.7 °C 15.8 °C 1011.0 hPa ENE 19.8 km/h 31.5 km/h 65% 0.0 mm CLR
19:34 22.6 °C 15.9 °C 1011.2 hPa NE 19.8 km/h 27.8 km/h 66% 0.0 mm CLR
19:39 22.6 °C 15.9 °C 1011.2 hPa North 19.0 km/h 31.5 km/h 66% 0.0 mm CLR
19:44 22.3 °C 15.9 °C 1011.2 hPa NE 19.0 km/h 27.8 km/h 67% 0.0 mm CLR
19:49 22.3 °C 16.1 °C 1011.4 hPa NE 20.9 km/h 24.1 km/h 68% 0.0 mm CLR
19:54 22.3 °C 16.1 °C 1011.4 hPa NNE 20.9 km/h 22.5 km/h 68% 0.0 mm CLR
19:59 22.2 °C 16.0 °C 1011.4 hPa ENE 16.4 km/h 33.3 km/h 68% 0.0 mm CLR
20:04 22.1 °C 15.9 °C 1011.7 hPa NNE 16.4 km/h 27.4 km/h 68% 0.0 mm CLR
20:09 22.0 °C 16.1 °C 1011.7 hPa NE 18.0 km/h 24.1 km/h 69% 0.0 mm CLR
20:14 22.0 °C 15.8 °C 1011.7 hPa NE 18.0 km/h 25.9 km/h 68% 0.0 mm CLR
20:19 21.9 °C 15.7 °C 1012.0 hPa NE 16.1 km/h 24.5 km/h 68% 0.0 mm CLR
20:24 21.8 °C 15.8 °C 1012.0 hPa ENE 16.1 km/h 23.3 km/h 69% 0.0 mm CLR
20:29 21.7 °C 16.0 °C 1012.0 hPa ENE 16.1 km/h 27.8 km/h 70% 0.0 mm CLR
20:34 21.7 °C 16.0 °C 1012.2 hPa NE 16.1 km/h 20.4 km/h 70% 0.0 mm CLR
20:39 21.6 °C 15.9 °C 1012.2 hPa ENE 14.8 km/h 24.1 km/h 70% 0.0 mm CLR
20:44 21.4 °C 15.9 °C 1012.2 hPa East 14.8 km/h 21.7 km/h 71% 0.0 mm CLR
20:49 21.3 °C 15.8 °C 1012.5 hPa ENE 14.8 km/h 24.1 km/h 71% 0.0 mm CLR
20:54 21.3 °C 16.1 °C 1012.5 hPa NE 14.8 km/h 24.1 km/h 72% 0.0 mm CLR
20:59 21.2 °C 16.2 °C 1012.5 hPa NE 13.7 km/h 18.5 km/h 73% 0.0 mm CLR
21:04 21.1 °C 16.1 °C 1012.8 hPa NNW 13.7 km/h 24.1 km/h 73% 0.0 mm CLR
21:09 20.9 °C 15.9 °C 1012.8 hPa ENE 13.0 km/h 24.1 km/h 73% 0.0 mm CLR
21:14 20.8 °C 16.0 °C 1012.8 hPa ENE 13.0 km/h 20.4 km/h 74% 0.0 mm CLR
21:19 20.7 °C 15.9 °C 1013.1 hPa ENE 14.8 km/h 16.7 km/h 74% 0.0 mm CLR
21:24 20.6 °C 15.8 °C 1013.1 hPa ENE 14.8 km/h 20.4 km/h 74% 0.0 mm CLR
21:29 20.5 °C 15.9 °C 1013.1 hPa NNE 12.2 km/h 18.5 km/h 75% 0.0 mm CLR
21:34 20.4 °C 16.0 °C 1013.4 hPa NE 12.2 km/h 16.7 km/h 76% 0.0 mm CLR
21:39 20.4 °C 16.2 °C 1013.4 hPa ENE 13.7 km/h 18.5 km/h 77% 0.0 mm CLR
21:44 20.3 °C 16.1 °C 1013.4 hPa NNE 13.7 km/h 18.5 km/h 77% 0.0 mm CLR
21:49 20.2 °C 16.1 °C 1013.7 hPa NE 12.2 km/h 20.4 km/h 77% 0.0 mm CLR
21:54 20.1 °C 16.2 °C 1013.7 hPa NE 12.2 km/h 16.7 km/h 78% 0.0 mm CLR
21:59 20.1 °C 16.2 °C 1013.7 hPa NE 12.2 km/h 19.0 km/h 78% 0.0 mm CLR
22:04 20.0 °C 16.1 °C 1013.9 hPa NE 12.2 km/h 18.5 km/h 78% 0.0 mm CLR
22:09 19.9 °C 16.2 °C 1013.9 hPa ENE 12.2 km/h 16.7 km/h 79% 0.0 mm CLR
22:14 19.9 °C 16.2 °C 1013.9 hPa ENE 12.2 km/h 18.5 km/h 79% 0.0 mm CLR
22:19 19.8 °C 16.1 °C 1014.2 hPa NE 12.2 km/h 24.1 km/h 79% 0.0 mm CLR
22:24 19.8 °C 16.1 °C 1014.2 hPa NE 12.2 km/h 16.7 km/h 79% 0.0 mm CLR
22:29 19.8 °C 16.2 °C 1014.2 hPa NE 13.7 km/h 20.4 km/h 80% 0.0 mm CLR
22:34 19.8 °C 16.2 °C 1014.4 hPa NE 13.7 km/h 16.7 km/h 80% 0.0 mm CLR
22:39 19.8 °C 16.2 °C 1014.4 hPa NNE 11.9 km/h 18.5 km/h 80% 0.0 mm CLR
22:44 19.7 °C 16.2 °C 1014.4 hPa NE 11.9 km/h 22.2 km/h 80% 0.0 mm CLR
22:49 19.7 °C 16.2 °C 1014.7 hPa NE 13.7 km/h 13.0 km/h 80% 0.0 mm CLR
22:54 19.7 °C 16.3 °C 1014.7 hPa NE 13.7 km/h 13.0 km/h 81% 0.0 mm CLR
22:59 19.7 °C 16.3 °C 1014.7 hPa NE 9.5 km/h 9.3 km/h 81% 0.0 mm CLR
23:04 19.6 °C 16.2 °C 1014.9 hPa ENE 9.5 km/h 16.4 km/h 81% 0.0 mm CLR
23:09 19.6 °C 16.2 °C 1014.9 hPa NNE 9.5 km/h 11.9 km/h 81% 0.0 mm CLR
23:14 19.5 °C 16.2 °C 1014.9 hPa NNE 9.5 km/h 18.5 km/h 81% 0.0 mm CLR
23:19 19.4 °C 16.1 °C 1015.1 hPa NE 10.0 km/h 15.6 km/h 81% 0.0 mm CLR
23:24 19.3 °C 15.9 °C 1015.1 hPa NE 10.0 km/h 18.5 km/h 81% 0.0 mm CLR
23:29 19.2 °C 16.1 °C 1015.1 hPa NE 13.0 km/h 22.2 km/h 82% 0.0 mm CLR
23:34 19.2 °C 16.1 °C 1015.4 hPa NNE 13.0 km/h 16.4 km/h 82% 0.0 mm CLR
23:39 19.2 °C 16.1 °C 1015.4 hPa NE 11.1 km/h 13.0 km/h 82% 0.0 mm CLR
23:44 19.1 °C 15.9 °C 1015.4 hPa NE 11.1 km/h 15.6 km/h 82% 0.0 mm CLR
23:49 18.9 °C 15.9 °C 1015.4 hPa NNE 10.0 km/h 16.7 km/h 83% 0.0 mm CLR
23:54 18.9 °C 15.9 °C 1015.4 hPa NE 10.0 km/h 14.8 km/h 83% 0.0 mm CLR
23:59 18.8 °C 15.8 °C 1015.4 hPa NNE 10.0 km/h 16.7 km/h 83% 0.0 mm CLR
Murcia-Puente Tocinos, España
Compliments of Weather Underground - 2.5 mb

La estación de MeteoMurcia.com, publica sus datos en los siguientes proyectos:

Weather Underground PWS IMURCIAP2 Meteoclimatic www.awekas.at

W3Counter
Web Analytics